sensor_id;sensor_type;location;lat;lon;timestamp;P1;durP1;ratioP1;P2;durP2;ratioP2
3050;SDS011;1535;51.098;6.414;2023-10-08T00:02:08;8.20;;;8.10;;
3050;SDS011;1535;51.098;6.414;2023-10-08T00:04:47;9.23;;;9.03;;
3050;SDS011;1535;51.098;6.414;2023-10-08T00:07:15;8.53;;;8.43;;
3050;SDS011;1535;51.098;6.414;2023-10-08T00:09:46;9.50;;;9.30;;
3050;SDS011;1535;51.098;6.414;2023-10-08T00:12:17;8.40;;;8.30;;
3050;SDS011;1535;51.098;6.414;2023-10-08T00:14:45;8.27;;;8.17;;
3050;SDS011;1535;51.098;6.414;2023-10-08T00:17:14;8.70;;;8.60;;
3050;SDS011;1535;51.098;6.414;2023-10-08T00:19:43;9.50;;;9.30;;
3050;SDS011;1535;51.098;6.414;2023-10-08T00:22:18;9.27;;;9.07;;
3050;SDS011;1535;51.098;6.414;2023-10-08T00:24:45;8.40;;;8.30;;
3050;SDS011;1535;51.098;6.414;2023-10-08T00:27:14;8.47;;;8.37;;
3050;SDS011;1535;51.098;6.414;2023-10-08T00:29:44;8.80;;;8.70;;
3050;SDS011;1535;51.098;6.414;2023-10-08T00:32:12;8.67;;;8.57;;
3050;SDS011;1535;51.098;6.414;2023-10-08T00:34:40;8.83;;;8.73;;
3050;SDS011;1535;51.098;6.414;2023-10-08T00:37:08;8.20;;;8.10;;
3050;SDS011;1535;51.098;6.414;2023-10-08T00:39:36;8.30;;;8.20;;
3050;SDS011;1535;51.098;6.414;2023-10-08T00:42:05;8.90;;;8.80;;
3050;SDS011;1535;51.098;6.414;2023-10-08T00:44:34;8.63;;;8.53;;
3050;SDS011;1535;51.098;6.414;2023-10-08T00:47:07;8.20;;;8.10;;
3050;SDS011;1535;51.098;6.414;2023-10-08T00:49:36;9.20;;;9.00;;
3050;SDS011;1535;51.098;6.414;2023-10-08T00:52:19;8.77;;;8.67;;
3050;SDS011;1535;51.098;6.414;2023-10-08T00:54:54;8.63;;;8.53;;
3050;SDS011;1535;51.098;6.414;2023-10-08T00:57:32;8.70;;;8.60;;
3050;SDS011;1535;51.098;6.414;2023-10-08T01:00:02;8.40;;;8.30;;
3050;SDS011;1535;51.098;6.414;2023-10-08T01:02:42;9.10;;;8.97;;
3050;SDS011;1535;51.098;6.414;2023-10-08T01:05:11;8.77;;;8.67;;
3050;SDS011;1535;51.098;6.414;2023-10-08T01:07:39;8.80;;;8.70;;
3050;SDS011;1535;51.098;6.414;2023-10-08T01:10:09;8.83;;;8.73;;
3050;SDS011;1535;51.098;6.414;2023-10-08T01:12:39;9.40;;;9.20;;
3050;SDS011;1535;51.098;6.414;2023-10-08T01:15:20;8.77;;;8.67;;
3050;SDS011;1535;51.098;6.414;2023-10-08T01:17:54;9.10;;;8.93;;
3050;SDS011;1535;51.098;6.414;2023-10-08T01:20:26;9.50;;;9.30;;
3050;SDS011;1535;51.098;6.414;2023-10-08T01:23:03;8.80;;;8.70;;
3050;SDS011;1535;51.098;6.414;2023-10-08T01:25:34;8.50;;;8.40;;
3050;SDS011;1535;51.098;6.414;2023-10-08T01:28:03;8.90;;;8.80;;
3050;SDS011;1535;51.098;6.414;2023-10-08T01:30:41;9.20;;;9.03;;
3050;SDS011;1535;51.098;6.414;2023-10-08T01:33:11;8.40;;;8.30;;
3050;SDS011;1535;51.098;6.414;2023-10-08T01:35:42;7.93;;;7.83;;
3050;SDS011;1535;51.098;6.414;2023-10-08T01:38:10;8.00;;;7.90;;
3050;SDS011;1535;51.098;6.414;2023-10-08T01:40:39;8.37;;;8.27;;
3050;SDS011;1535;51.098;6.414;2023-10-08T01:43:06;8.30;;;8.20;;
3050;SDS011;1535;51.098;6.414;2023-10-08T01:45:35;8.50;;;8.40;;
3050;SDS011;1535;51.098;6.414;2023-10-08T01:48:05;8.13;;;8.03;;
3050;SDS011;1535;51.098;6.414;2023-10-08T01:50:34;9.00;;;8.90;;
3050;SDS011;1535;51.098;6.414;2023-10-08T01:53:02;8.10;;;8.00;;
3050;SDS011;1535;51.098;6.414;2023-10-08T01:55:36;8.50;;;8.40;;
3050;SDS011;1535;51.098;6.414;2023-10-08T01:58:13;8.97;;;8.83;;
3050;SDS011;1535;51.098;6.414;2023-10-08T02:00:41;9.20;;;9.00;;
3050;SDS011;1535;51.098;6.414;2023-10-08T02:03:10;8.87;;;8.77;;
3050;SDS011;1535;51.098;6.414;2023-10-08T02:05:40;8.60;;;8.50;;
3050;SDS011;1535;51.098;6.414;2023-10-08T02:08:08;8.60;;;8.50;;
3050;SDS011;1535;51.098;6.414;2023-10-08T02:10:39;8.60;;;8.50;;
3050;SDS011;1535;51.098;6.414;2023-10-08T02:13:08;8.37;;;8.27;;
3050;SDS011;1535;51.098;6.414;2023-10-08T02:15:36;8.60;;;8.50;;
3050;SDS011;1535;51.098;6.414;2023-10-08T02:18:04;9.03;;;8.90;;
3050;SDS011;1535;51.098;6.414;2023-10-08T02:20:33;8.20;;;8.10;;
3050;SDS011;1535;51.098;6.414;2023-10-08T02:23:00;8.37;;;8.27;;
3050;SDS011;1535;51.098;6.414;2023-10-08T02:25:26;9.20;;;9.00;;
3050;SDS011;1535;51.098;6.414;2023-10-08T02:27:55;8.13;;;8.03;;
3050;SDS011;1535;51.098;6.414;2023-10-08T02:30:22;8.70;;;8.60;;
3050;SDS011;1535;51.098;6.414;2023-10-08T02:32:49;8.30;;;8.20;;
3050;SDS011;1535;51.098;6.414;2023-10-08T02:35:18;8.23;;;8.13;;
3050;SDS011;1535;51.098;6.414;2023-10-08T02:37:45;8.27;;;8.17;;
3050;SDS011;1535;51.098;6.414;2023-10-08T02:40:12;9.40;;;9.20;;
3050;SDS011;1535;51.098;6.414;2023-10-08T02:42:50;8.70;;;8.60;;
3050;SDS011;1535;51.098;6.414;2023-10-08T02:45:18;8.70;;;8.60;;
3050;SDS011;1535;51.098;6.414;2023-10-08T02:47:47;9.50;;;9.30;;
3050;SDS011;1535;51.098;6.414;2023-10-08T02:50:13;8.80;;;8.70;;
3050;SDS011;1535;51.098;6.414;2023-10-08T02:52:42;8.97;;;8.87;;
3050;SDS011;1535;51.098;6.414;2023-10-08T02:55:11;8.67;;;8.57;;
3050;SDS011;1535;51.098;6.414;2023-10-08T02:57:49;8.93;;;8.83;;
3050;SDS011;1535;51.098;6.414;2023-10-08T03:00:17;9.80;;;9.60;;
3050;SDS011;1535;51.098;6.414;2023-10-08T03:02:45;8.67;;;8.57;;
3050;SDS011;1535;51.098;6.414;2023-10-08T03:05:14;8.63;;;8.53;;
3050;SDS011;1535;51.098;6.414;2023-10-08T03:07:44;8.40;;;8.30;;
3050;SDS011;1535;51.098;6.414;2023-10-08T03:10:16;8.93;;;8.83;;
3050;SDS011;1535;51.098;6.414;2023-10-08T03:12:44;9.27;;;9.07;;
3050;SDS011;1535;51.098;6.414;2023-10-08T03:15:12;8.80;;;8.70;;
3050;SDS011;1535;51.098;6.414;2023-10-08T03:17:55;9.43;;;9.23;;
3050;SDS011;1535;51.098;6.414;2023-10-08T03:20:28;8.93;;;8.83;;
3050;SDS011;1535;51.098;6.414;2023-10-08T03:23:03;8.90;;;8.80;;
3050;SDS011;1535;51.098;6.414;2023-10-08T03:25:38;8.67;;;8.57;;
3050;SDS011;1535;51.098;6.414;2023-10-08T03:28:08;8.60;;;8.50;;
3050;SDS011;1535;51.098;6.414;2023-10-08T03:30:38;8.73;;;8.63;;
3050;SDS011;1535;51.098;6.414;2023-10-08T03:33:15;8.33;;;8.23;;
3050;SDS011;1535;51.098;6.414;2023-10-08T03:35:47;7.70;;;7.60;;
3050;SDS011;1535;51.098;6.414;2023-10-08T03:38:17;8.70;;;8.60;;
3050;SDS011;1535;51.098;6.414;2023-10-08T03:40:48;8.77;;;8.67;;
3050;SDS011;1535;51.098;6.414;2023-10-08T03:43:15;8.80;;;8.70;;
3050;SDS011;1535;51.098;6.414;2023-10-08T03:45:50;8.50;;;8.40;;
3050;SDS011;1535;51.098;6.414;2023-10-08T03:48:22;8.90;;;8.80;;
3050;SDS011;1535;51.098;6.414;2023-10-08T03:50:50;8.70;;;8.60;;
3050;SDS011;1535;51.098;6.414;2023-10-08T03:53:23;8.57;;;8.47;;
3050;SDS011;1535;51.098;6.414;2023-10-08T03:55:49;8.53;;;8.43;;
3050;SDS011;1535;51.098;6.414;2023-10-08T03:58:19;8.33;;;8.23;;
3050;SDS011;1535;51.098;6.414;2023-10-08T04:00:54;8.70;;;8.60;;
3050;SDS011;1535;51.098;6.414;2023-10-08T04:03:35;9.97;;;9.77;;
3050;SDS011;1535;51.098;6.414;2023-10-08T04:06:23;9.03;;;8.90;;
3050;SDS011;1535;51.098;6.414;2023-10-08T04:08:55;8.73;;;8.63;;
3050;SDS011;1535;51.098;6.414;2023-10-08T04:11:37;9.43;;;9.23;;
3050;SDS011;1535;51.098;6.414;2023-10-08T04:14:17;9.00;;;8.90;;
3050;SDS011;1535;51.098;6.414;2023-10-08T04:16:45;9.40;;;9.20;;
3050;SDS011;1535;51.098;6.414;2023-10-08T04:19:18;8.90;;;8.80;;
3050;SDS011;1535;51.098;6.414;2023-10-08T04:21:46;9.47;;;9.27;;
3050;SDS011;1535;51.098;6.414;2023-10-08T04:24:19;8.87;;;8.77;;
3050;SDS011;1535;51.098;6.414;2023-10-08T04:26:56;8.73;;;8.63;;
3050;SDS011;1535;51.098;6.414;2023-10-08T04:29:24;9.97;;;9.77;;
3050;SDS011;1535;51.098;6.414;2023-10-08T04:31:57;9.83;;;9.63;;
3050;SDS011;1535;51.098;6.414;2023-10-08T04:34:34;9.40;;;9.20;;
3050;SDS011;1535;51.098;6.414;2023-10-08T04:37:01;9.73;;;9.53;;
3050;SDS011;1535;51.098;6.414;2023-10-08T04:39:37;9.20;;;9.00;;
3050;SDS011;1535;51.098;6.414;2023-10-08T04:42:06;9.50;;;9.30;;
3050;SDS011;1535;51.098;6.414;2023-10-08T04:44:35;9.83;;;9.63;;
3050;SDS011;1535;51.098;6.414;2023-10-08T04:47:04;9.60;;;9.40;;
3050;SDS011;1535;51.098;6.414;2023-10-08T04:49:54;9.67;;;9.47;;
3050;SDS011;1535;51.098;6.414;2023-10-08T04:52:21;9.90;;;9.70;;
3050;SDS011;1535;51.098;6.414;2023-10-08T04:54:50;9.20;;;9.00;;
3050;SDS011;1535;51.098;6.414;2023-10-08T04:57:19;9.90;;;9.70;;
3050;SDS011;1535;51.098;6.414;2023-10-08T04:59:47;9.87;;;9.67;;
3050;SDS011;1535;51.098;6.414;2023-10-08T05:02:16;9.70;;;9.50;;
3050;SDS011;1535;51.098;6.414;2023-10-08T05:04:56;9.67;;;9.47;;
3050;SDS011;1535;51.098;6.414;2023-10-08T05:07:43;10.10;;;9.90;;
3050;SDS011;1535;51.098;6.414;2023-10-08T05:10:28;9.30;;;9.10;;
3050;SDS011;1535;51.098;6.414;2023-10-08T05:13:10;9.00;;;8.90;;
3050;SDS011;1535;51.098;6.414;2023-10-08T05:15:55;9.60;;;9.40;;
3050;SDS011;1535;51.098;6.414;2023-10-08T05:18:48;8.60;;;8.50;;
3050;SDS011;1535;51.098;6.414;2023-10-08T05:21:34;9.23;;;9.03;;
3050;SDS011;1535;51.098;6.414;2023-10-08T05:24:17;9.20;;;9.00;;
3050;SDS011;1535;51.098;6.414;2023-10-08T05:26:52;9.93;;;9.73;;
3050;SDS011;1535;51.098;6.414;2023-10-08T05:29:39;9.43;;;9.23;;
3050;SDS011;1535;51.098;6.414;2023-10-08T05:32:17;8.93;;;8.83;;
3050;SDS011;1535;51.098;6.414;2023-10-08T05:35:04;8.40;;;8.30;;
3050;SDS011;1535;51.098;6.414;2023-10-08T05:37:51;8.80;;;8.70;;
3050;SDS011;1535;51.098;6.414;2023-10-08T05:40:37;8.67;;;8.57;;
3050;SDS011;1535;51.098;6.414;2023-10-08T05:43:30;8.20;;;8.10;;
3050;SDS011;1535;51.098;6.414;2023-10-08T05:46:20;8.20;;;8.10;;
3050;SDS011;1535;51.098;6.414;2023-10-08T05:49:12;8.80;;;8.70;;
3050;SDS011;1535;51.098;6.414;2023-10-08T05:52:09;8.90;;;8.80;;
3050;SDS011;1535;51.098;6.414;2023-10-08T05:54:52;8.87;;;8.77;;
3050;SDS011;1535;51.098;6.414;2023-10-08T05:57:39;8.57;;;8.47;;
3050;SDS011;1535;51.098;6.414;2023-10-08T06:00:11;8.10;;;8.00;;
3050;SDS011;1535;51.098;6.414;2023-10-08T06:02:56;8.13;;;8.03;;
3050;SDS011;1535;51.098;6.414;2023-10-08T06:05:57;7.73;;;7.63;;
3050;SDS011;1535;51.098;6.414;2023-10-08T06:08:44;8.30;;;8.20;;
3050;SDS011;1535;51.098;6.414;2023-10-08T06:11:32;7.40;;;7.30;;
3050;SDS011;1535;51.098;6.414;2023-10-08T06:14:09;7.70;;;7.60;;
3050;SDS011;1535;51.098;6.414;2023-10-08T06:16:42;7.73;;;7.63;;
3050;SDS011;1535;51.098;6.414;2023-10-08T06:19:09;7.57;;;7.47;;
3050;SDS011;1535;51.098;6.414;2023-10-08T06:21:38;8.13;;;8.03;;
3050;SDS011;1535;51.098;6.414;2023-10-08T06:24:05;7.93;;;7.83;;
3050;SDS011;1535;51.098;6.414;2023-10-08T06:26:36;7.43;;;7.33;;
3050;SDS011;1535;51.098;6.414;2023-10-08T06:29:07;7.30;;;7.20;;
3050;SDS011;1535;51.098;6.414;2023-10-08T06:31:52;7.13;;;7.03;;
3050;SDS011;1535;51.098;6.414;2023-10-08T06:34:20;7.20;;;7.10;;
3050;SDS011;1535;51.098;6.414;2023-10-08T06:36:52;7.00;;;6.90;;
3050;SDS011;1535;51.098;6.414;2023-10-08T06:39:21;7.50;;;7.40;;
3050;SDS011;1535;51.098;6.414;2023-10-08T06:41:53;7.87;;;7.77;;
3050;SDS011;1535;51.098;6.414;2023-10-08T06:44:23;7.87;;;7.77;;
3050;SDS011;1535;51.098;6.414;2023-10-08T06:46:51;8.07;;;7.97;;
3050;SDS011;1535;51.098;6.414;2023-10-08T06:49:20;7.70;;;7.60;;
3050;SDS011;1535;51.098;6.414;2023-10-08T06:51:49;8.37;;;8.27;;
3050;SDS011;1535;51.098;6.414;2023-10-08T06:54:18;8.27;;;8.17;;
3050;SDS011;1535;51.098;6.414;2023-10-08T06:56:47;8.33;;;8.23;;
3050;SDS011;1535;51.098;6.414;2023-10-08T06:59:19;8.00;;;7.90;;
3050;SDS011;1535;51.098;6.414;2023-10-08T07:01:48;8.03;;;7.93;;
3050;SDS011;1535;51.098;6.414;2023-10-08T07:04:16;8.10;;;8.00;;
3050;SDS011;1535;51.098;6.414;2023-10-08T07:06:44;7.53;;;7.43;;
3050;SDS011;1535;51.098;6.414;2023-10-08T07:09:12;7.30;;;7.20;;
3050;SDS011;1535;51.098;6.414;2023-10-08T07:11:53;8.37;;;8.27;;
3050;SDS011;1535;51.098;6.414;2023-10-08T07:14:23;8.43;;;8.33;;
3050;SDS011;1535;51.098;6.414;2023-10-08T07:16:52;8.70;;;8.60;;
3050;SDS011;1535;51.098;6.414;2023-10-08T07:19:20;9.10;;;8.93;;
3050;SDS011;1535;51.098;6.414;2023-10-08T07:21:53;8.57;;;8.47;;
3050;SDS011;1535;51.098;6.414;2023-10-08T07:24:28;9.00;;;8.90;;
3050;SDS011;1535;51.098;6.414;2023-10-08T07:26:56;8.80;;;8.70;;
3050;SDS011;1535;51.098;6.414;2023-10-08T07:29:25;9.17;;;8.97;;
3050;SDS011;1535;51.098;6.414;2023-10-08T07:31:52;9.50;;;9.30;;
3050;SDS011;1535;51.098;6.414;2023-10-08T07:34:19;10.17;;;9.97;;
3050;SDS011;1535;51.098;6.414;2023-10-08T07:36:52;9.90;;;9.70;;
3050;SDS011;1535;51.098;6.414;2023-10-08T07:39:20;9.87;;;9.67;;
3050;SDS011;1535;51.098;6.414;2023-10-08T07:41:52;9.60;;;9.40;;
3050;SDS011;1535;51.098;6.414;2023-10-08T07:44:20;9.43;;;9.23;;
3050;SDS011;1535;51.098;6.414;2023-10-08T07:46:49;8.93;;;8.80;;
3050;SDS011;1535;51.098;6.414;2023-10-08T07:49:19;9.20;;;9.00;;
3050;SDS011;1535;51.098;6.414;2023-10-08T07:51:48;9.70;;;9.50;;
3050;SDS011;1535;51.098;6.414;2023-10-08T07:54:16;9.20;;;9.00;;
3050;SDS011;1535;51.098;6.414;2023-10-08T07:56:44;9.47;;;9.27;;
3050;SDS011;1535;51.098;6.414;2023-10-08T07:59:12;9.30;;;9.10;;
3050;SDS011;1535;51.098;6.414;2023-10-08T08:01:40;9.23;;;9.03;;
3050;SDS011;1535;51.098;6.414;2023-10-08T08:04:09;9.00;;;8.90;;
3050;SDS011;1535;51.098;6.414;2023-10-08T08:06:40;8.67;;;8.57;;
3050;SDS011;1535;51.098;6.414;2023-10-08T08:09:07;9.07;;;8.90;;
3050;SDS011;1535;51.098;6.414;2023-10-08T08:11:42;8.40;;;8.30;;
3050;SDS011;1535;51.098;6.414;2023-10-08T08:14:12;8.30;;;8.20;;
3050;SDS011;1535;51.098;6.414;2023-10-08T08:16:41;8.00;;;7.90;;
3050;SDS011;1535;51.098;6.414;2023-10-08T08:19:12;8.70;;;8.60;;
3050;SDS011;1535;51.098;6.414;2023-10-08T08:21:41;9.00;;;8.90;;
3050;SDS011;1535;51.098;6.414;2023-10-08T08:24:10;9.03;;;8.90;;
3050;SDS011;1535;51.098;6.414;2023-10-08T08:26:38;8.87;;;8.77;;
3050;SDS011;1535;51.098;6.414;2023-10-08T08:29:26;8.53;;;8.43;;
3050;SDS011;1535;51.098;6.414;2023-10-08T08:31:55;9.50;;;9.30;;
3050;SDS011;1535;51.098;6.414;2023-10-08T08:34:23;9.80;;;9.60;;
3050;SDS011;1535;51.098;6.414;2023-10-08T08:36:51;9.83;;;9.63;;
3050;SDS011;1535;51.098;6.414;2023-10-08T08:39:18;9.60;;;9.40;;
3050;SDS011;1535;51.098;6.414;2023-10-08T08:41:59;9.70;;;9.50;;
3050;SDS011;1535;51.098;6.414;2023-10-08T08:44:29;10.40;;;10.20;;
3050;SDS011;1535;51.098;6.414;2023-10-08T08:46:59;10.10;;;9.90;;
3050;SDS011;1535;51.098;6.414;2023-10-08T08:49:31;10.10;;;9.90;;
3050;SDS011;1535;51.098;6.414;2023-10-08T08:52:02;9.70;;;9.50;;
3050;SDS011;1535;51.098;6.414;2023-10-08T08:54:29;10.63;;;10.43;;
3050;SDS011;1535;51.098;6.414;2023-10-08T08:56:58;9.80;;;9.60;;
3050;SDS011;1535;51.098;6.414;2023-10-08T08:59:29;11.10;;;10.80;;
3050;SDS011;1535;51.098;6.414;2023-10-08T09:01:57;10.00;;;9.80;;
3050;SDS011;1535;51.098;6.414;2023-10-08T09:04:28;10.20;;;10.00;;
3050;SDS011;1535;51.098;6.414;2023-10-08T09:06:58;10.03;;;9.83;;
3050;SDS011;1535;51.098;6.414;2023-10-08T09:09:31;10.10;;;9.90;;
3050;SDS011;1535;51.098;6.414;2023-10-08T09:11:58;10.00;;;9.80;;
3050;SDS011;1535;51.098;6.414;2023-10-08T09:14:30;10.00;;;9.80;;
3050;SDS011;1535;51.098;6.414;2023-10-08T09:16:59;9.60;;;9.40;;
3050;SDS011;1535;51.098;6.414;2023-10-08T09:19:35;9.60;;;9.40;;
3050;SDS011;1535;51.098;6.414;2023-10-08T09:22:02;10.10;;;9.90;;
3050;SDS011;1535;51.098;6.414;2023-10-08T09:24:32;9.87;;;9.67;;
3050;SDS011;1535;51.098;6.414;2023-10-08T09:27:01;9.50;;;9.30;;
3050;SDS011;1535;51.098;6.414;2023-10-08T09:29:29;10.33;;;10.13;;
3050;SDS011;1535;51.098;6.414;2023-10-08T09:31:56;10.30;;;10.10;;
3050;SDS011;1535;51.098;6.414;2023-10-08T09:34:27;10.70;;;10.50;;
3050;SDS011;1535;51.098;6.414;2023-10-08T09:36:58;10.40;;;10.20;;
3050;SDS011;1535;51.098;6.414;2023-10-08T09:39:26;10.33;;;10.13;;
3050;SDS011;1535;51.098;6.414;2023-10-08T09:41:56;9.67;;;9.47;;
3050;SDS011;1535;51.098;6.414;2023-10-08T09:44:24;9.40;;;9.20;;
3050;SDS011;1535;51.098;6.414;2023-10-08T09:46:56;9.90;;;9.70;;
3050;SDS011;1535;51.098;6.414;2023-10-08T09:49:31;9.90;;;9.70;;
3050;SDS011;1535;51.098;6.414;2023-10-08T09:52:00;9.80;;;9.60;;
3050;SDS011;1535;51.098;6.414;2023-10-08T09:54:31;9.90;;;9.70;;
3050;SDS011;1535;51.098;6.414;2023-10-08T09:57:06;9.80;;;9.60;;
3050;SDS011;1535;51.098;6.414;2023-10-08T09:59:33;9.93;;;9.73;;
3050;SDS011;1535;51.098;6.414;2023-10-08T10:02:01;9.83;;;9.63;;
3050;SDS011;1535;51.098;6.414;2023-10-08T10:04:30;9.87;;;9.67;;
3050;SDS011;1535;51.098;6.414;2023-10-08T10:07:04;10.00;;;9.80;;
3050;SDS011;1535;51.098;6.414;2023-10-08T10:09:37;9.40;;;9.20;;
3050;SDS011;1535;51.098;6.414;2023-10-08T10:12:08;9.37;;;9.17;;
3050;SDS011;1535;51.098;6.414;2023-10-08T10:14:42;9.10;;;9.00;;
3050;SDS011;1535;51.098;6.414;2023-10-08T10:17:12;8.93;;;8.83;;
3050;SDS011;1535;51.098;6.414;2023-10-08T10:19:41;9.63;;;9.43;;
3050;SDS011;1535;51.098;6.414;2023-10-08T10:22:12;9.50;;;9.30;;
3050;SDS011;1535;51.098;6.414;2023-10-08T10:24:41;9.77;;;9.57;;
3050;SDS011;1535;51.098;6.414;2023-10-08T10:27:11;9.90;;;9.70;;
3050;SDS011;1535;51.098;6.414;2023-10-08T10:29:40;9.77;;;9.57;;
3050;SDS011;1535;51.098;6.414;2023-10-08T10:32:10;9.70;;;9.50;;
3050;SDS011;1535;51.098;6.414;2023-10-08T10:34:40;9.90;;;9.70;;
3050;SDS011;1535;51.098;6.414;2023-10-08T10:37:10;10.00;;;9.80;;
3050;SDS011;1535;51.098;6.414;2023-10-08T10:39:54;9.97;;;9.77;;
3050;SDS011;1535;51.098;6.414;2023-10-08T10:42:24;9.93;;;9.73;;
3050;SDS011;1535;51.098;6.414;2023-10-08T10:44:53;9.90;;;9.70;;
3050;SDS011;1535;51.098;6.414;2023-10-08T10:47:22;10.37;;;10.17;;
3050;SDS011;1535;51.098;6.414;2023-10-08T10:49:52;10.10;;;9.90;;
3050;SDS011;1535;51.098;6.414;2023-10-08T10:52:35;10.50;;;10.30;;
3050;SDS011;1535;51.098;6.414;2023-10-08T10:55:11;9.80;;;9.60;;
3050;SDS011;1535;51.098;6.414;2023-10-08T10:57:49;10.70;;;10.50;;
3050;SDS011;1535;51.098;6.414;2023-10-08T11:00:29;10.00;;;9.80;;
3050;SDS011;1535;51.098;6.414;2023-10-08T11:03:21;10.57;;;10.37;;
3050;SDS011;1535;51.098;6.414;2023-10-08T11:05:50;10.70;;;10.50;;
3050;SDS011;1535;51.098;6.414;2023-10-08T11:08:20;10.47;;;10.27;;
3050;SDS011;1535;51.098;6.414;2023-10-08T11:10:53;10.70;;;10.50;;
3050;SDS011;1535;51.098;6.414;2023-10-08T11:13:24;10.50;;;10.30;;
3050;SDS011;1535;51.098;6.414;2023-10-08T11:15:53;10.53;;;10.33;;
3050;SDS011;1535;51.098;6.414;2023-10-08T11:18:23;10.17;;;9.97;;
3050;SDS011;1535;51.098;6.414;2023-10-08T11:20:53;10.20;;;10.00;;
3050;SDS011;1535;51.098;6.414;2023-10-08T11:23:41;10.93;;;10.73;;
3050;SDS011;1535;51.098;6.414;2023-10-08T11:26:13;10.70;;;10.50;;
3050;SDS011;1535;51.098;6.414;2023-10-08T11:28:41;10.10;;;9.90;;
3050;SDS011;1535;51.098;6.414;2023-10-08T11:31:14;10.33;;;10.13;;
3050;SDS011;1535;51.098;6.414;2023-10-08T11:33:44;10.73;;;10.53;;
3050;SDS011;1535;51.098;6.414;2023-10-08T11:36:19;10.57;;;10.37;;
3050;SDS011;1535;51.098;6.414;2023-10-08T11:38:52;11.30;;;11.00;;
3050;SDS011;1535;51.098;6.414;2023-10-08T11:41:27;10.97;;;10.77;;
3050;SDS011;1535;51.098;6.414;2023-10-08T11:43:56;11.20;;;10.97;;
3050;SDS011;1535;51.098;6.414;2023-10-08T11:46:24;10.87;;;10.67;;
3050;SDS011;1535;51.098;6.414;2023-10-08T11:48:53;10.40;;;10.20;;
3050;SDS011;1535;51.098;6.414;2023-10-08T11:51:23;10.60;;;10.40;;
3050;SDS011;1535;51.098;6.414;2023-10-08T11:53:50;10.83;;;10.63;;
3050;SDS011;1535;51.098;6.414;2023-10-08T11:56:19;11.03;;;10.83;;
3050;SDS011;1535;51.098;6.414;2023-10-08T11:58:49;9.77;;;9.57;;
3050;SDS011;1535;51.098;6.414;2023-10-08T12:01:17;9.90;;;9.70;;
3050;SDS011;1535;51.098;6.414;2023-10-08T12:03:45;10.00;;;9.80;;
3050;SDS011;1535;51.098;6.414;2023-10-08T12:06:15;10.13;;;9.93;;
3050;SDS011;1535;51.098;6.414;2023-10-08T12:08:43;9.77;;;9.57;;
3050;SDS011;1535;51.098;6.414;2023-10-08T12:11:14;9.43;;;9.23;;
3050;SDS011;1535;51.098;6.414;2023-10-08T12:13:42;9.00;;;8.90;;
3050;SDS011;1535;51.098;6.414;2023-10-08T12:16:12;9.30;;;9.10;;
3050;SDS011;1535;51.098;6.414;2023-10-08T12:18:43;9.77;;;9.57;;
3050;SDS011;1535;51.098;6.414;2023-10-08T12:21:13;9.77;;;9.57;;
3050;SDS011;1535;51.098;6.414;2023-10-08T12:23:41;9.77;;;9.57;;
3050;SDS011;1535;51.098;6.414;2023-10-08T12:26:10;10.00;;;9.80;;
3050;SDS011;1535;51.098;6.414;2023-10-08T12:28:41;10.17;;;9.97;;
3050;SDS011;1535;51.098;6.414;2023-10-08T12:31:13;9.50;;;9.30;;
3050;SDS011;1535;51.098;6.414;2023-10-08T12:33:41;9.90;;;9.70;;
3050;SDS011;1535;51.098;6.414;2023-10-08T12:36:09;9.10;;;9.00;;
3050;SDS011;1535;51.098;6.414;2023-10-08T12:38:37;9.10;;;9.00;;
3050;SDS011;1535;51.098;6.414;2023-10-08T12:41:06;8.60;;;8.50;;
3050;SDS011;1535;51.098;6.414;2023-10-08T12:43:39;8.80;;;8.70;;
3050;SDS011;1535;51.098;6.414;2023-10-08T12:46:10;8.73;;;8.63;;
3050;SDS011;1535;51.098;6.414;2023-10-08T12:48:44;8.47;;;8.37;;
3050;SDS011;1535;51.098;6.414;2023-10-08T12:51:13;8.40;;;8.30;;
3050;SDS011;1535;51.098;6.414;2023-10-08T12:53:41;8.63;;;8.53;;
3050;SDS011;1535;51.098;6.414;2023-10-08T12:56:15;9.30;;;9.10;;
3050;SDS011;1535;51.098;6.414;2023-10-08T12:58:46;10.40;;;10.20;;
3050;SDS011;1535;51.098;6.414;2023-10-08T13:01:17;9.90;;;9.70;;
3050;SDS011;1535;51.098;6.414;2023-10-08T13:03:44;10.40;;;10.20;;
3050;SDS011;1535;51.098;6.414;2023-10-08T13:06:14;10.57;;;10.37;;
3050;SDS011;1535;51.098;6.414;2023-10-08T13:08:47;9.80;;;9.60;;
3050;SDS011;1535;51.098;6.414;2023-10-08T13:11:14;9.70;;;9.50;;
3050;SDS011;1535;51.098;6.414;2023-10-08T13:13:40;10.90;;;10.70;;
3050;SDS011;1535;51.098;6.414;2023-10-08T13:16:09;11.17;;;10.97;;
3050;SDS011;1535;51.098;6.414;2023-10-08T13:18:38;10.60;;;10.40;;
3050;SDS011;1535;51.098;6.414;2023-10-08T13:21:08;10.93;;;10.73;;
3050;SDS011;1535;51.098;6.414;2023-10-08T13:23:36;10.80;;;10.60;;
3050;SDS011;1535;51.098;6.414;2023-10-08T13:26:04;10.80;;;10.60;;
3050;SDS011;1535;51.098;6.414;2023-10-08T13:28:32;10.90;;;10.70;;
3050;SDS011;1535;51.098;6.414;2023-10-08T13:30:59;10.83;;;10.63;;
3050;SDS011;1535;51.098;6.414;2023-10-08T13:33:34;11.20;;;10.93;;
3050;SDS011;1535;51.098;6.414;2023-10-08T13:36:05;10.57;;;10.37;;
3050;SDS011;1535;51.098;6.414;2023-10-08T13:38:35;11.00;;;10.80;;
3050;SDS011;1535;51.098;6.414;2023-10-08T13:41:02;10.93;;;10.73;;
3050;SDS011;1535;51.098;6.414;2023-10-08T13:43:31;10.80;;;10.60;;
3050;SDS011;1535;51.098;6.414;2023-10-08T13:46:03;10.73;;;10.53;;
3050;SDS011;1535;51.098;6.414;2023-10-08T13:48:32;11.90;;;11.60;;
3050;SDS011;1535;51.098;6.414;2023-10-08T13:51:01;11.20;;;10.90;;
3050;SDS011;1535;51.098;6.414;2023-10-08T13:53:30;11.60;;;11.30;;
3050;SDS011;1535;51.098;6.414;2023-10-08T13:55:58;11.87;;;11.57;;
3050;SDS011;1535;51.098;6.414;2023-10-08T13:58:27;12.03;;;11.73;;
3050;SDS011;1535;51.098;6.414;2023-10-08T14:01:01;12.37;;;12.07;;
3050;SDS011;1535;51.098;6.414;2023-10-08T14:03:43;11.97;;;11.67;;
3050;SDS011;1535;51.098;6.414;2023-10-08T14:06:10;11.87;;;11.57;;
3050;SDS011;1535;51.098;6.414;2023-10-08T14:08:41;11.97;;;11.67;;
3050;SDS011;1535;51.098;6.414;2023-10-08T14:11:16;12.47;;;12.17;;
3050;SDS011;1535;51.098;6.414;2023-10-08T14:13:44;12.17;;;11.87;;
3050;SDS011;1535;51.098;6.414;2023-10-08T14:16:12;11.10;;;10.90;;
3050;SDS011;1535;51.098;6.414;2023-10-08T14:18:42;11.50;;;11.20;;
3050;SDS011;1535;51.098;6.414;2023-10-08T14:21:18;11.40;;;11.10;;
3050;SDS011;1535;51.098;6.414;2023-10-08T14:23:50;10.93;;;10.73;;
3050;SDS011;1535;51.098;6.414;2023-10-08T14:26:21;11.03;;;10.83;;
3050;SDS011;1535;51.098;6.414;2023-10-08T14:28:50;11.10;;;10.87;;
3050;SDS011;1535;51.098;6.414;2023-10-08T14:31:18;10.90;;;10.70;;
3050;SDS011;1535;51.098;6.414;2023-10-08T14:33:49;11.17;;;10.93;;
3050;SDS011;1535;51.098;6.414;2023-10-08T14:36:30;10.60;;;10.40;;
3050;SDS011;1535;51.098;6.414;2023-10-08T14:39:17;10.83;;;10.63;;
3050;SDS011;1535;51.098;6.414;2023-10-08T14:42:09;10.50;;;10.30;;
3050;SDS011;1535;51.098;6.414;2023-10-08T14:47:38;11.10;;;10.90;;
3050;SDS011;1535;51.098;6.414;2023-10-08T14:50:06;10.30;;;10.10;;
3050;SDS011;1535;51.098;6.414;2023-10-08T14:52:41;10.50;;;10.30;;
3050;SDS011;1535;51.098;6.414;2023-10-08T14:55:09;10.43;;;10.23;;
3050;SDS011;1535;51.098;6.414;2023-10-08T14:57:37;10.63;;;10.43;;
3050;SDS011;1535;51.098;6.414;2023-10-08T15:00:05;11.00;;;10.80;;
3050;SDS011;1535;51.098;6.414;2023-10-08T15:02:34;11.10;;;10.90;;
3050;SDS011;1535;51.098;6.414;2023-10-08T15:05:02;10.70;;;10.50;;
3050;SDS011;1535;51.098;6.414;2023-10-08T15:07:31;10.80;;;10.60;;
3050;SDS011;1535;51.098;6.414;2023-10-08T15:09:58;10.33;;;10.13;;
3050;SDS011;1535;51.098;6.414;2023-10-08T15:12:27;10.90;;;10.70;;
3050;SDS011;1535;51.098;6.414;2023-10-08T15:14:54;10.80;;;10.60;;
3050;SDS011;1535;51.098;6.414;2023-10-08T15:17:21;10.70;;;10.50;;
3050;SDS011;1535;51.098;6.414;2023-10-08T15:19:48;10.87;;;10.67;;
3050;SDS011;1535;51.098;6.414;2023-10-08T15:22:16;11.57;;;11.27;;
3050;SDS011;1535;51.098;6.414;2023-10-08T15:24:43;10.70;;;10.50;;
3050;SDS011;1535;51.098;6.414;2023-10-08T15:27:11;10.70;;;10.50;;
3050;SDS011;1535;51.098;6.414;2023-10-08T15:29:40;10.80;;;10.60;;
3050;SDS011;1535;51.098;6.414;2023-10-08T15:32:07;10.53;;;10.33;;
3050;SDS011;1535;51.098;6.414;2023-10-08T15:34:34;11.10;;;10.90;;
3050;SDS011;1535;51.098;6.414;2023-10-08T15:37:01;11.83;;;11.53;;
3050;SDS011;1535;51.098;6.414;2023-10-08T15:39:28;10.80;;;10.60;;